createdAt,value
2024-02-08T00:03:33.448Z,1.41
2024-02-08T00:08:36.751Z,1.46
2024-02-08T00:13:38.774Z,1.44
2024-02-08T00:19:04.118Z,1.44
2024-02-08T00:24:06.436Z,1.29
2024-02-08T00:29:09.734Z,1.17
2024-02-08T00:34:12.633Z,1.12
2024-02-08T00:39:18.983Z,1.31
2024-02-08T00:44:27.495Z,1.17
2024-02-08T00:49:31.480Z,1.04
2024-02-08T00:54:33.381Z,0.80
2024-02-08T00:59:39.833Z,0.81
2024-02-08T01:04:41.882Z,0.62
2024-02-08T01:09:56.988Z,0.54
2024-02-08T01:15:17.021Z,0.45
2024-02-08T01:20:29.578Z,0.37
2024-02-08T01:25:32.776Z,0.26
2024-02-08T01:30:36.784Z,0.20
2024-02-08T01:35:41.733Z,0.15
2024-02-08T01:40:50.535Z,0.10
2024-02-08T01:45:53.598Z,-0.06
2024-02-08T01:50:59.945Z,-0.03
2024-02-08T01:56:04.046Z,-0.09
2024-02-08T02:01:07.659Z,-0.07
2024-02-08T02:06:10.042Z,0.11
2024-02-08T02:11:42.887Z,0.05
2024-02-08T02:16:56.308Z,-0.08
2024-02-08T02:21:58.294Z,-0.20
2024-02-08T02:27:01.479Z,-0.21
2024-02-08T02:32:17.391Z,-0.25
2024-02-08T02:37:20.277Z,-0.13
2024-02-08T02:42:26.999Z,-0.25
2024-02-08T02:47:33.098Z,-0.26
2024-02-08T02:52:35.641Z,-0.32
2024-02-08T02:57:37.613Z,-0.24
2024-02-08T03:02:39.665Z,-0.27
2024-02-08T03:07:43.856Z,-0.28
2024-02-08T03:12:45.865Z,-0.30
2024-02-08T03:17:48.609Z,-0.35
2024-02-08T03:23:04.411Z,-0.24
2024-02-08T03:28:14.581Z,-0.14
2024-02-08T03:33:20.282Z,-0.08
2024-02-08T03:38:22.274Z,-0.02
2024-02-08T03:43:25.282Z,0.07
2024-02-08T03:48:34.589Z,0.08
2024-02-08T03:53:38.517Z,0.09
2024-02-08T03:58:40.559Z,0.15
2024-02-08T04:03:55.133Z,0.13
2024-02-08T04:09:18.159Z,0.05
2024-02-08T04:14:58.672Z,-0.07
2024-02-08T04:20:19.258Z,-0.22
2024-02-08T04:25:39.956Z,-0.32
2024-02-08T04:31:00.255Z,-0.42
2024-02-08T04:36:29.692Z,-0.43
2024-02-08T04:42:10.175Z,-0.51
2024-02-08T04:47:37.704Z,-0.40
2024-02-08T04:53:16.627Z,-0.30
2024-02-08T04:58:37.163Z,-0.36
2024-02-08T05:03:43.712Z,-0.35
2024-02-08T05:08:50.616Z,-0.39
2024-02-08T05:13:53.684Z,-0.42
2024-02-08T05:18:57.447Z,-0.51
2024-02-08T05:24:02.966Z,-0.52
2024-02-08T05:29:21.231Z,-0.50
2024-02-08T05:34:27.439Z,-0.58
2024-02-08T05:39:33.884Z,-0.61
2024-02-08T05:44:41.925Z,-0.69
2024-02-08T05:49:53.829Z,-0.70
2024-02-08T05:54:55.909Z,-0.67
2024-02-08T06:00:02.367Z,-0.71
2024-02-08T06:05:11.150Z,-0.71
2024-02-08T06:10:16.564Z,-0.70
2024-02-08T06:15:37.625Z,-0.65
2024-02-08T06:21:01.387Z,-0.61
2024-02-08T06:26:15.814Z,-0.69
2024-02-08T06:31:21.033Z,-0.63
2024-02-08T06:36:31.826Z,-0.65
2024-02-08T06:41:54.572Z,-0.54
2024-02-08T06:47:19.566Z,-0.54
2024-02-08T06:52:53.919Z,-0.46
2024-02-08T06:58:27.653Z,-0.40
2024-02-08T07:03:48.642Z,-0.36
2024-02-08T07:09:11.351Z,-0.18
2024-02-08T07:14:31.914Z,-0.17
2024-02-08T07:19:52.900Z,-0.12
2024-02-08T07:25:13.647Z,-0.03
2024-02-08T07:30:49.201Z,0.00
2024-02-08T07:36:09.772Z,0.03
2024-02-08T07:41:13.837Z,0.11
2024-02-08T07:46:21.061Z,0.03
2024-02-08T07:51:27.430Z,-0.04
2024-02-08T07:56:38.894Z,-0.04
2024-02-08T08:01:45.858Z,0.02
2024-02-08T08:07:02.120Z,0.18
2024-02-08T08:12:11.371Z,0.32
2024-02-08T08:17:28.654Z,0.46
2024-02-08T08:22:33.493Z,0.54
2024-02-08T08:28:00.777Z,0.74
2024-02-08T08:33:03.177Z,0.77
2024-02-08T08:38:23.596Z,0.89
2024-02-08T08:43:38.078Z,0.98
2024-02-08T08:49:16.219Z,0.96
2024-02-08T08:54:30.922Z,0.97
2024-02-08T08:59:34.286Z,0.95
2024-02-08T09:04:38.625Z,1.11
2024-02-08T09:10:05.789Z,1.24
2024-02-08T09:15:28.601Z,1.49
2024-02-08T09:20:31.596Z,1.58
2024-02-08T09:25:48.955Z,1.91
2024-02-08T09:30:55.317Z,2.03
2024-02-08T09:36:05.151Z,2.37
2024-02-08T09:41:11.150Z,2.10
2024-02-08T09:46:33.281Z,2.04
2024-02-08T09:51:55.274Z,1.84
2024-02-08T09:57:23.502Z,1.85
2024-02-08T10:03:05.289Z,1.96
2024-02-08T10:08:11.519Z,1.95
2024-02-08T10:13:42.450Z,1.96
2024-02-08T10:19:05.796Z,2.22
2024-02-08T10:24:29.032Z,2.09
2024-02-08T10:29:39.515Z,2.02
2024-02-08T10:34:45.102Z,2.04
2024-02-08T10:40:01.723Z,1.98
2024-02-08T10:45:07.151Z,2.00
2024-02-08T10:50:29.064Z,2.03
2024-02-08T10:55:38.882Z,2.14
2024-02-08T11:00:42.996Z,2.08
2024-02-08T11:06:11.532Z,2.17
2024-02-08T11:11:22.528Z,2.15
2024-02-08T11:16:39.290Z,2.29
2024-02-08T11:21:46.030Z,2.25
2024-02-08T11:26:56.415Z,2.30
2024-02-08T11:32:01.459Z,2.35
2024-02-08T11:37:20.450Z,2.59
2024-02-08T11:42:25.309Z,2.46
2024-02-08T11:47:27.339Z,2.51
2024-02-08T11:52:30.170Z,2.45
2024-02-08T11:57:42.388Z,2.37
2024-02-08T12:02:59.191Z,2.35
2024-02-08T12:08:10.930Z,2.43
2024-02-08T12:13:15.745Z,2.53
2024-02-08T12:18:19.963Z,2.55
2024-02-08T12:23:25.529Z,2.61
2024-02-08T12:28:28.909Z,2.65
2024-02-08T12:33:34.262Z,2.54
2024-02-08T12:38:39.125Z,2.61
2024-02-08T12:43:44.269Z,2.36
2024-02-08T12:48:48.789Z,1.89
2024-02-08T12:53:58.540Z,1.81
2024-02-08T12:59:02.709Z,1.85
2024-02-08T13:04:28.467Z,1.79
2024-02-08T13:09:36.730Z,1.72
2024-02-08T13:14:38.872Z,1.74
2024-02-08T13:19:41.700Z,1.88
2024-02-08T13:24:46.554Z,1.87
2024-02-08T13:29:48.803Z,1.86
2024-02-08T13:34:52.767Z,2.07
2024-02-08T13:40:04.968Z,2.23
2024-02-08T13:45:07.716Z,2.38
2024-02-08T13:50:13.336Z,2.41
2024-02-08T13:55:20.239Z,2.51
2024-02-08T14:00:23.720Z,2.46
2024-02-08T14:05:27.659Z,2.54
2024-02-08T14:10:33.308Z,2.45
2024-02-08T14:15:39.849Z,2.47
2024-02-08T14:20:48.925Z,2.43
2024-02-08T14:26:10.902Z,2.37
2024-02-08T14:31:13.720Z,2.37
2024-02-08T14:36:16.369Z,2.36
2024-02-08T14:41:28.334Z,2.32
2024-02-08T14:46:30.993Z,2.25
2024-02-08T14:51:37.809Z,2.21
2024-02-08T14:56:42.691Z,2.03
2024-02-08T15:01:54.326Z,2.03
2024-02-08T15:07:06.261Z,1.95
2024-02-08T15:12:46.066Z,1.87
2024-02-08T15:17:50.315Z,1.79
2024-02-08T15:23:11.295Z,1.81
2024-02-08T15:28:27.975Z,1.78
2024-02-08T15:33:32.911Z,1.75
2024-02-08T15:38:35.083Z,1.76
2024-02-08T15:43:38.040Z,1.76
2024-02-08T15:48:46.557Z,1.73
2024-02-08T15:53:51.341Z,1.66
2024-02-08T15:59:03.352Z,1.64
2024-02-08T16:04:20.035Z,1.52
2024-02-08T16:09:28.770Z,1.51
2024-02-08T16:14:43.887Z,1.52
2024-02-08T16:19:53.256Z,1.53
2024-02-08T16:24:58.458Z,1.48
2024-02-08T16:30:09.228Z,1.46
2024-02-08T16:35:30.029Z,1.47
2024-02-08T16:40:33.872Z,1.42
2024-02-08T16:45:45.831Z,1.44
2024-02-08T16:50:50.793Z,1.45
2024-02-08T16:56:00.125Z,1.44
2024-02-08T17:01:06.839Z,1.36
2024-02-08T17:06:18.156Z,1.42
2024-02-08T17:11:25.554Z,1.23
2024-02-08T17:16:37.652Z,1.11
2024-02-08T17:21:46.470Z,0.98
2024-02-08T17:27:01.099Z,0.94
2024-02-08T17:32:09.289Z,0.94
2024-02-08T17:37:19.638Z,0.92
2024-02-08T17:42:22.230Z,0.92
2024-02-08T17:47:30.176Z,0.94
2024-02-08T17:52:36.281Z,0.94
2024-02-08T17:57:43.716Z,0.92
2024-02-08T18:02:46.749Z,0.94
2024-02-08T18:07:48.952Z,0.96
2024-02-08T18:12:57.459Z,0.95
2024-02-08T18:18:06.357Z,0.94
2024-02-08T18:23:08.623Z,1.00
2024-02-08T18:28:11.326Z,1.00
2024-02-08T18:33:16.946Z,1.00
2024-02-08T18:38:24.761Z,0.99
2024-02-08T18:43:28.681Z,0.93
2024-02-08T18:48:35.813Z,0.93
2024-02-08T18:53:42.709Z,0.90
2024-02-08T18:58:52.150Z,0.91
2024-02-08T19:03:55.145Z,0.90
2024-02-08T19:08:58.553Z,0.89
2024-02-08T19:14:03.362Z,0.83
2024-02-08T19:19:12.440Z,0.81
2024-02-08T19:24:19.039Z,0.84
2024-02-08T19:29:25.929Z,0.87
2024-02-08T19:34:30.853Z,0.80
2024-02-08T19:39:33.045Z,0.79
2024-02-08T19:44:38.055Z,0.80
2024-02-08T19:49:43.219Z,0.78
2024-02-08T19:54:51.331Z,0.74
2024-02-08T19:59:55.310Z,0.76
2024-02-08T20:05:02.722Z,0.77
2024-02-08T20:10:13.858Z,0.79
2024-02-08T20:15:22.217Z,0.78
2024-02-08T20:20:24.685Z,0.85
2024-02-08T20:25:35.103Z,0.88
2024-02-08T20:30:40.208Z,0.89
2024-02-08T20:35:57.246Z,0.86
2024-02-08T20:41:12.181Z,0.86
2024-02-08T20:46:17.782Z,0.88
2024-02-08T20:51:30.056Z,0.88
2024-02-08T20:56:39.569Z,0.85
2024-02-08T21:01:47.634Z,0.90
2024-02-08T21:06:49.772Z,0.86
2024-02-08T21:11:52.567Z,0.90
2024-02-08T21:16:55.524Z,0.85
2024-02-08T21:21:58.904Z,0.84
2024-02-08T21:27:09.014Z,0.84
2024-02-08T21:32:12.120Z,0.86
2024-02-08T21:37:14.455Z,0.79
2024-02-08T21:42:16.839Z,0.82
2024-02-08T21:47:23.612Z,0.73
2024-02-08T21:52:27.776Z,0.78
2024-02-08T21:57:42.287Z,0.84
2024-02-08T22:02:47.558Z,0.82
2024-02-08T22:07:50.168Z,0.80
2024-02-08T22:13:07.503Z,0.91
2024-02-08T22:18:17.613Z,0.84
2024-02-08T22:23:22.848Z,0.87
2024-02-08T22:28:30.812Z,0.87
2024-02-08T22:33:33.903Z,0.84
2024-02-08T22:38:38.562Z,0.88
2024-02-08T22:43:49.631Z,0.86
2024-02-08T22:48:55.943Z,0.82
2024-02-08T22:53:58.083Z,0.80
2024-02-08T22:59:01.736Z,0.80
2024-02-08T23:04:07.186Z,0.78
2024-02-08T23:09:11.722Z,0.74
2024-02-08T23:14:31.398Z,0.74
2024-02-08T23:19:35.792Z,0.73
2024-02-08T23:24:42.310Z,0.73
2024-02-08T23:29:44.456Z,0.71
2024-02-08T23:34:49.057Z,0.72
2024-02-08T23:39:51.255Z,0.64
2024-02-08T23:45:17.128Z,0.71
2024-02-08T23:50:19.915Z,0.57
2024-02-08T23:55:24.780Z,0.65
